Pagrindinis puslapis
METAR-TAF:

METAR-TAF

Oro uostai :

Rangūnas, Mianmaras

platuma: 16-46N, ilguma: 096-10E, Aukštis: 14 m

Dabartinis oras

Ataskaita buvo paskelbta 21 minutes, ne 02:00 UTC
Vėjas 5 kt iš Pietvakarių
Temperatūra 26°C
Drėgmė 84%
Slėgis 1011 hPa
Matomumas: 7000 m
Išsisklaidę debesys ne aukštis 2000 ft
Išsisklaidę debesys ne aukštis 11000 ft

METAR: VYYY 010200Z 22005KT 7000 SCT020 SCT110 26/23 Q1011 NOSIG

Laikas: 08:51 (02:21 UTC)

Prognozė

Ataskaita buvo paskelbta 3 valandos ir 21 minutes, ne 23:00 UTC
Prognozė galioja nuo 01 metu 00 UTC su 01 metu 24 UTC
Vėjas 8 kt iš Pietų/Pietvakarių
Matomumas: 8000 m
Išsisklaidę debesys ne aukštis 2000 ft
Tapsmas
nuo 01 metu 00 UTC su 01 metu 02 UTC
Matomumas: 4000 m
rūkana
Laikinai
nuo 01 metu 10 UTC su 01 metu 12 UTC
Matomumas: 6000 m
migla

TAF: VYYY 312300Z 0100/0124 21008KT 8000 SCT020 BECMG 0100/0102 4000 BR TEMPO 0110/0112 6000 HZ

Orai ataskaitas ir orų prognozės (METAR, TAF).

turimą stotys yra geltonos ir raudonos taškus žemėlapyje.

Perkelti pele per norėdami pamatyti stoties vardą.

Tada spustelėkite, norėdami matyti oro stebėjimo ir prognozės.

Norėdami pakeisti žemėlapį: spustelėkite ant žalios mygtukų su juodo kryžiaus žemyn,; žalią mygtuką su brūkšneliu, jei norite nutolinti; arba žalių rodyklių gretimoms žemėlapius.


METAR-TAF: